createdAt,value
2022-12-15T00:03:09.844Z,36.78
2022-12-15T00:06:30.046Z,36.80
2022-12-15T00:09:49.964Z,33.83
2022-12-15T00:13:09.808Z,32.30
2022-12-15T00:16:29.937Z,32.75
2022-12-15T00:19:50.302Z,34.10
2022-12-15T00:23:10.224Z,31.97
2022-12-15T00:26:30.169Z,29.83
2022-12-15T00:29:49.976Z,30.83
2022-12-15T00:33:10.259Z,34.05
2022-12-15T00:36:30.195Z,37.08
2022-12-15T00:39:31.785Z,31.85
2022-12-15T00:42:33.353Z,30.33
2022-12-15T00:45:56.940Z,36.23
2022-12-15T00:48:58.687Z,34.05
2022-12-15T00:52:18.527Z,31.67
2022-12-15T00:55:39.042Z,32.73
2022-12-15T00:58:58.837Z,32.65
2022-12-15T01:02:19.276Z,34.78
2022-12-15T01:05:39.466Z,33.03
2022-12-15T01:08:59.967Z,32.42
2022-12-15T01:12:19.911Z,29.63
2022-12-15T01:15:39.789Z,33.75
2022-12-15T01:18:59.866Z,31.93
2022-12-15T01:22:01.467Z,30.17
2022-12-15T01:25:03.677Z,35.78
2022-12-15T01:28:05.428Z,32.10
2022-12-15T01:31:11.734Z,34.80
2022-12-15T01:34:13.394Z,33.08
2022-12-15T01:37:15.029Z,35.22
2022-12-15T01:40:36.330Z,34.42
2022-12-15T01:43:39.312Z,35.80
2022-12-15T01:46:40.976Z,36.83
2022-12-15T01:49:46.063Z,34.80
2022-12-15T01:52:50.834Z,32.38
2022-12-15T01:55:52.422Z,33.20
2022-12-15T01:58:56.751Z,38.30
2022-12-15T02:02:01.928Z,33.72
2022-12-15T02:05:05.288Z,36.90
2022-12-15T02:08:06.860Z,34.60
2022-12-15T02:11:15.726Z,37.67
2022-12-15T02:14:24.519Z,37.13
2022-12-15T02:17:40.192Z,36.60
2022-12-15T02:21:06.337Z,37.70
2022-12-15T02:24:49.835Z,32.05
2022-12-15T02:28:08.410Z,33.55
2022-12-15T02:31:36.383Z,34.30
2022-12-15T02:34:55.859Z,35.35
2022-12-15T02:37:57.454Z,37.75
2022-12-15T02:41:00.343Z,36.85
2022-12-15T02:44:03.431Z,32.35
2022-12-15T02:47:27.746Z,34.17
2022-12-15T02:50:42.367Z,38.15
2022-12-15T02:54:17.244Z,42.67
2022-12-15T02:57:28.501Z,35.83
2022-12-15T03:00:30.652Z,41.70
2022-12-15T03:03:32.926Z,39.03
2022-12-15T03:06:37.873Z,35.38
2022-12-15T03:09:39.421Z,37.03
2022-12-15T03:12:41.075Z,38.45
2022-12-15T03:15:42.683Z,36.20
2022-12-15T03:18:47.359Z,37.00
2022-12-15T03:21:48.920Z,38.67
2022-12-15T03:24:50.569Z,37.60
2022-12-15T03:27:52.133Z,38.13
2022-12-15T03:30:53.716Z,38.72
2022-12-15T03:33:59.527Z,39.27
2022-12-15T03:37:01.131Z,36.67
2022-12-15T03:40:06.044Z,40.08
2022-12-15T03:43:07.598Z,36.53
2022-12-15T03:46:09.301Z,36.08
2022-12-15T03:49:10.879Z,38.15
2022-12-15T03:52:16.379Z,36.28
2022-12-15T03:55:18.560Z,39.67
2022-12-15T03:58:22.941Z,38.53
2022-12-15T04:01:32.717Z,36.40
2022-12-15T04:04:38.445Z,41.07
2022-12-15T04:07:40.017Z,39.88
2022-12-15T04:10:44.998Z,38.38
2022-12-15T04:13:46.686Z,37.97
2022-12-15T04:16:48.323Z,38.80
2022-12-15T04:20:08.614Z,37.42
2022-12-15T04:23:13.348Z,40.20
2022-12-15T04:26:33.335Z,36.63
2022-12-15T04:29:53.070Z,35.63
2022-12-15T04:33:12.926Z,40.22
2022-12-15T04:36:32.846Z,36.37
2022-12-15T04:39:58.361Z,42.90
2022-12-15T04:43:21.899Z,38.17
2022-12-15T04:46:41.845Z,42.03
2022-12-15T04:50:05.371Z,40.03
2022-12-15T04:53:33.782Z,38.72
2022-12-15T04:56:54.146Z,40.17
2022-12-15T05:00:14.029Z,37.77
2022-12-15T05:03:34.929Z,39.60
2022-12-15T05:06:55.404Z,37.95
2022-12-15T05:10:19.318Z,39.33
2022-12-15T05:13:42.865Z,38.83
2022-12-15T05:17:03.050Z,42.63
2022-12-15T05:20:27.177Z,43.50
2022-12-15T05:23:50.697Z,43.13
2022-12-15T05:27:10.988Z,47.97
2022-12-15T05:30:31.312Z,79.75
2022-12-15T05:33:33.340Z,55.93
2022-12-15T05:36:37.985Z,48.47
2022-12-15T05:39:39.559Z,52.10
2022-12-15T05:42:41.137Z,57.73
2022-12-15T05:45:42.790Z,47.72
2022-12-15T05:48:44.821Z,52.75
2022-12-15T05:51:47.338Z,40.42
2022-12-15T05:54:48.910Z,43.45
2022-12-15T05:57:53.499Z,43.53
2022-12-15T06:00:55.057Z,45.83
2022-12-15T06:03:56.880Z,48.83
2022-12-15T06:06:58.528Z,48.97
2022-12-15T06:10:00.165Z,54.42
2022-12-15T06:13:01.871Z,55.97
2022-12-15T06:16:04.587Z,48.90
2022-12-15T06:19:06.176Z,61.40
2022-12-15T06:22:07.775Z,72.97
2022-12-15T06:25:09.578Z,56.35
2022-12-15T06:28:11.179Z,59.75
2022-12-15T06:31:13.150Z,52.78
2022-12-15T06:34:15.701Z,53.47
2022-12-15T06:37:17.248Z,45.05
2022-12-15T06:40:18.840Z,44.35
2022-12-15T06:43:20.408Z,51.07
2022-12-15T06:46:22.192Z,55.05
2022-12-15T06:49:23.844Z,48.75
2022-12-15T06:52:25.629Z,50.35
2022-12-15T06:55:27.223Z,49.25
2022-12-15T06:58:28.907Z,47.00
2022-12-15T07:01:33.967Z,48.67
2022-12-15T07:04:35.717Z,51.27
2022-12-15T07:07:37.302Z,46.53
2022-12-15T07:10:40.334Z,49.13
2022-12-15T07:13:41.916Z,51.63
2022-12-15T07:16:43.648Z,55.03
2022-12-15T07:19:45.247Z,48.50
2022-12-15T07:22:50.753Z,46.75
2022-12-15T07:25:52.334Z,50.10
2022-12-15T07:28:54.457Z,53.28
2022-12-15T07:31:56.322Z,40.20
2022-12-15T07:34:58.402Z,42.87
2022-12-15T07:38:00.536Z,42.70
2022-12-15T07:41:03.365Z,54.50
2022-12-15T07:44:06.232Z,46.73
2022-12-15T07:47:07.816Z,53.55
2022-12-15T07:50:09.568Z,64.78
2022-12-15T07:53:11.117Z,70.57
2022-12-15T07:56:12.992Z,68.50
2022-12-15T07:59:14.571Z,43.22
2022-12-15T08:02:16.394Z,40.88
2022-12-15T08:05:18.217Z,40.00
2022-12-15T08:08:20.525Z,43.50
2022-12-15T08:11:22.648Z,41.10
2022-12-15T08:14:24.949Z,39.77
2022-12-15T08:17:26.687Z,40.00
2022-12-15T08:20:29.300Z,40.78
2022-12-15T08:23:33.053Z,38.33
2022-12-15T08:26:35.071Z,41.97
2022-12-15T08:29:52.707Z,43.38
2022-12-15T08:32:54.604Z,42.30
2022-12-15T08:36:01.159Z,46.23
2022-12-15T08:39:02.991Z,45.63
2022-12-15T08:42:04.785Z,43.08
2022-12-15T08:45:07.216Z,51.83
2022-12-15T08:48:08.765Z,41.47
2022-12-15T08:51:10.772Z,39.28
2022-12-15T08:54:12.432Z,42.85
2022-12-15T08:57:14.038Z,42.00
2022-12-15T09:00:16.120Z,42.47
2022-12-15T09:03:17.685Z,41.92
2022-12-15T09:06:29.781Z,41.73
2022-12-15T09:09:31.521Z,52.42
2022-12-15T09:12:33.344Z,44.72
2022-12-15T09:16:07.520Z,45.13
2022-12-15T09:18:58.409Z,52.53
2022-12-15T09:22:01.053Z,54.55
2022-12-15T09:25:03.847Z,52.35
2022-12-15T09:28:05.445Z,50.60
2022-12-15T09:31:09.672Z,56.25
2022-12-15T09:34:14.226Z,60.28
2022-12-15T09:37:15.825Z,57.67
2022-12-15T09:40:17.473Z,52.70
2022-12-15T09:43:34.490Z,67.93
2022-12-15T09:47:15.861Z,69.50
2022-12-15T09:50:17.461Z,60.03
2022-12-15T09:53:53.130Z,62.33
2022-12-15T09:56:53.330Z,59.50
2022-12-15T10:00:07.798Z,62.78
2022-12-15T10:03:34.755Z,60.70
2022-12-15T10:06:38.440Z,68.88
2022-12-15T10:09:40.096Z,70.60
2022-12-15T10:12:54.820Z,71.10
2022-12-15T10:16:16.369Z,63.53
2022-12-15T10:19:39.058Z,67.23
2022-12-15T10:22:40.835Z,74.05
2022-12-15T10:26:09.486Z,72.47
2022-12-15T10:29:36.002Z,69.65
2022-12-15T10:33:08.518Z,65.38
2022-12-15T10:36:11.437Z,66.65
2022-12-15T10:39:16.162Z,64.68
2022-12-15T10:42:26.298Z,68.47
2022-12-15T10:45:35.961Z,72.90
2022-12-15T10:48:37.579Z,62.38
2022-12-15T10:51:43.688Z,67.70
2022-12-15T10:54:48.429Z,64.57
2022-12-15T10:58:00.574Z,62.63
2022-12-15T11:01:14.825Z,63.92
2022-12-15T11:04:32.399Z,68.00
2022-12-15T11:07:43.571Z,68.22
2022-12-15T11:11:09.868Z,73.10
2022-12-15T11:14:27.016Z,71.60
2022-12-15T11:17:36.847Z,75.38
2022-12-15T11:20:48.566Z,66.82
2022-12-15T11:24:02.359Z,51.13
2022-12-15T11:27:23.923Z,55.30
2022-12-15T11:30:29.373Z,53.75
2022-12-15T11:33:31.419Z,54.63
2022-12-15T11:36:54.951Z,51.10
2022-12-15T11:40:05.604Z,53.40
2022-12-15T11:43:13.193Z,54.08
2022-12-15T11:46:39.504Z,57.00
2022-12-15T11:50:06.022Z,56.50
2022-12-15T11:53:50.493Z,52.92
2022-12-15T11:57:30.592Z,57.47
2022-12-15T12:00:35.392Z,53.08
2022-12-15T12:04:05.479Z,56.63
2022-12-15T12:07:26.015Z,55.15
2022-12-15T12:10:40.178Z,54.17
2022-12-15T12:14:06.680Z,54.90
2022-12-15T12:17:34.317Z,55.90
2022-12-15T12:20:57.483Z,52.17
2022-12-15T12:24:20.811Z,52.72
2022-12-15T12:27:35.706Z,52.25
2022-12-15T12:30:42.748Z,53.87
2022-12-15T12:33:45.754Z,57.40
2022-12-15T12:36:50.348Z,52.42
2022-12-15T12:39:52.243Z,53.22
2022-12-15T12:42:57.316Z,55.22
2022-12-15T12:46:00.461Z,50.67
2022-12-15T12:49:27.172Z,46.08
2022-12-15T12:52:31.912Z,52.80
2022-12-15T12:55:41.443Z,49.35
2022-12-15T12:58:43.105Z,42.53
2022-12-15T13:01:44.874Z,58.57
2022-12-15T13:05:19.381Z,58.63
2022-12-15T13:12:52.662Z,58.20
2022-12-15T13:16:26.209Z,57.63
2022-12-15T13:19:59.071Z,53.90
2022-12-15T13:23:37.185Z,58.28
2022-12-15T13:26:38.943Z,58.67
2022-12-15T13:30:01.924Z,57.67
2022-12-15T13:33:17.711Z,53.70
2022-12-15T13:36:37.851Z,50.90
2022-12-15T13:39:53.842Z,54.13
2022-12-15T13:42:59.424Z,68.55
2022-12-15T13:46:06.084Z,54.50
2022-12-15T13:49:53.236Z,54.77
2022-12-15T13:53:18.311Z,58.10
2022-12-15T13:56:32.676Z,55.10
2022-12-15T13:59:40.287Z,57.63
2022-12-15T14:02:41.939Z,60.33
2022-12-15T14:06:11.342Z,58.28
2022-12-15T14:09:19.399Z,59.67
2022-12-15T14:12:21.031Z,79.57
2022-12-15T14:15:28.820Z,66.40
2022-12-15T14:18:32.582Z,63.67
2022-12-15T14:21:34.393Z,70.43
2022-12-15T14:24:44.178Z,66.30
2022-12-15T14:27:45.830Z,68.72
2022-12-15T14:30:52.553Z,65.97
2022-12-15T14:34:03.864Z,74.68
2022-12-15T14:37:11.526Z,83.55
2022-12-15T14:40:17.748Z,87.28
2022-12-15T14:43:21.769Z,70.63
2022-12-15T14:46:24.585Z,67.68
2022-12-15T14:49:28.445Z,62.70
2022-12-15T14:52:35.220Z,63.92
2022-12-15T14:55:37.844Z,64.72
2022-12-15T14:58:39.931Z,64.85
2022-12-15T15:03:14.738Z,79.95
2022-12-15T15:03:16.427Z,58.90
2022-12-15T15:05:26.325Z,91.37
2022-12-15T15:08:49.008Z,89.35
2022-12-15T15:12:01.303Z,79.05
2022-12-15T15:15:08.928Z,77.90
2022-12-15T15:18:13.734Z,72.45
2022-12-15T15:21:17.356Z,84.40
2022-12-15T15:24:26.235Z,77.28
2022-12-15T15:27:32.259Z,77.35
2022-12-15T15:30:48.598Z,102.30
2022-12-15T15:33:50.973Z,79.90
2022-12-15T15:36:52.586Z,76.23
2022-12-15T15:39:54.661Z,90.20
2022-12-15T15:42:56.238Z,91.38
2022-12-15T15:46:06.014Z,96.07
2022-12-15T15:49:08.649Z,85.63
2022-12-15T15:52:12.648Z,83.97
2022-12-15T15:55:15.266Z,89.93
2022-12-15T15:58:16.951Z,133.73
2022-12-15T16:01:18.729Z,92.85
2022-12-15T16:04:20.542Z,107.38
2022-12-15T16:07:23.092Z,107.97
2022-12-15T16:10:24.742Z,125.68
2022-12-15T16:13:26.686Z,106.72
2022-12-15T16:16:35.006Z,91.53
2022-12-15T16:19:39.575Z,109.30
2022-12-15T16:22:42.919Z,91.95
2022-12-15T16:25:50.939Z,113.97
2022-12-15T16:28:52.745Z,118.43
2022-12-15T16:31:54.381Z,135.35
2022-12-15T16:34:56.039Z,114.07
2022-12-15T16:37:57.680Z,105.93
2022-12-15T16:41:04.410Z,111.85
2022-12-15T16:44:06.404Z,104.35
2022-12-15T16:47:07.938Z,90.77
2022-12-15T16:50:12.976Z,94.10
2022-12-15T16:53:30.958Z,93.50
2022-12-15T16:56:32.599Z,79.20
2022-12-15T16:59:35.577Z,86.20
2022-12-15T17:02:38.708Z,83.35
2022-12-15T17:05:41.033Z,89.50
2022-12-15T17:08:48.078Z,62.77
2022-12-15T17:11:50.025Z,54.88
2022-12-15T17:14:51.597Z,49.92
2022-12-15T17:17:58.170Z,47.33
2022-12-15T17:21:07.279Z,49.28
2022-12-15T17:24:11.409Z,50.20
2022-12-15T17:27:29.689Z,52.30
2022-12-15T17:30:31.461Z,40.78
2022-12-15T17:33:34.611Z,45.80
2022-12-15T17:36:36.460Z,66.63
2022-12-15T17:39:38.076Z,67.83
2022-12-15T17:42:41.048Z,106.75
2022-12-15T17:45:42.766Z,55.85
2022-12-15T17:48:44.631Z,64.30
2022-12-15T17:51:46.486Z,67.93
2022-12-15T17:54:48.073Z,72.25
2022-12-15T17:57:49.890Z,47.22
2022-12-15T18:00:55.702Z,53.55
2022-12-15T18:03:57.328Z,76.45
2022-12-15T18:07:02.113Z,48.22
2022-12-15T18:10:04.383Z,74.80
2022-12-15T18:13:26.866Z,89.40
2022-12-15T18:16:29.525Z,68.53
2022-12-15T18:19:35.262Z,47.87
2022-12-15T18:22:36.890Z,52.08
2022-12-15T18:25:38.492Z,42.17
2022-12-15T18:28:40.144Z,41.35
2022-12-15T18:31:41.824Z,45.80
2022-12-15T18:34:43.597Z,50.05
2022-12-15T18:37:45.206Z,47.92
2022-12-15T18:40:51.199Z,58.67
2022-12-15T18:43:52.762Z,46.92
2022-12-15T18:46:55.189Z,47.90
2022-12-15T18:49:56.961Z,58.83
2022-12-15T18:52:59.894Z,47.75
2022-12-15T18:56:02.654Z,47.97
2022-12-15T18:59:05.465Z,60.75
2022-12-15T19:02:07.807Z,48.10
2022-12-15T19:05:27.753Z,47.25
2022-12-15T19:08:32.108Z,61.47
2022-12-15T19:11:34.054Z,50.13
2022-12-15T19:14:41.554Z,58.25
2022-12-15T19:18:01.815Z,56.85
2022-12-15T19:21:37.966Z,50.33
2022-12-15T19:24:54.581Z,49.25
2022-12-15T19:27:59.312Z,47.28
2022-12-15T19:31:01.738Z,55.17
2022-12-15T19:34:03.344Z,48.13
2022-12-15T19:37:06.336Z,50.92
2022-12-15T19:40:08.545Z,62.65
2022-12-15T19:43:10.651Z,57.40
2022-12-15T19:46:18.846Z,51.72
2022-12-15T19:49:20.533Z,51.85
2022-12-15T19:52:22.301Z,50.87
2022-12-15T19:55:26.560Z,49.03
2022-12-15T19:58:29.986Z,66.47
2022-12-15T20:01:31.645Z,55.75
2022-12-15T20:04:34.110Z,79.53
2022-12-15T20:07:35.698Z,64.75
2022-12-15T20:10:37.313Z,59.05
2022-12-15T20:13:38.898Z,86.10
2022-12-15T20:16:40.661Z,80.88
2022-12-15T20:19:42.673Z,62.33
2022-12-15T20:22:48.446Z,54.53
2022-12-15T20:25:50.032Z,59.67
2022-12-15T20:28:52.425Z,66.18
2022-12-15T20:31:54.422Z,63.40
2022-12-15T20:34:56.094Z,78.85
2022-12-15T20:37:57.679Z,60.00
2022-12-15T20:41:00.330Z,53.45
2022-12-15T20:44:01.947Z,58.80
2022-12-15T20:47:03.598Z,51.90
2022-12-15T20:50:07.350Z,51.72
2022-12-15T20:53:20.060Z,73.23
2022-12-15T20:56:23.303Z,58.67
2022-12-15T20:59:25.009Z,62.90
2022-12-15T21:02:28.860Z,57.60
2022-12-15T21:05:31.564Z,51.45
2022-12-15T21:08:33.246Z,73.28
2022-12-15T21:11:34.888Z,52.38
2022-12-15T21:14:36.741Z,47.97
2022-12-15T21:17:41.862Z,53.50
2022-12-15T21:20:45.290Z,50.22
2022-12-15T21:23:47.443Z,57.40
2022-12-15T21:26:49.528Z,45.33
2022-12-15T21:29:52.842Z,51.28
2022-12-15T21:32:54.686Z,55.40
2022-12-15T21:35:56.344Z,49.28
2022-12-15T21:38:58.700Z,49.90
2022-12-15T21:42:05.456Z,67.10
2022-12-15T21:45:18.443Z,59.33
2022-12-15T21:48:38.460Z,59.17
2022-12-15T21:51:45.135Z,58.30
2022-12-15T21:54:46.706Z,64.47
2022-12-15T21:57:48.341Z,57.10
2022-12-15T22:00:49.942Z,59.75
2022-12-15T22:03:53.503Z,51.55
2022-12-15T22:06:59.199Z,59.90
2022-12-15T22:10:00.781Z,61.35
2022-12-15T22:13:02.364Z,52.28
2022-12-15T22:16:04.171Z,50.37
2022-12-15T22:19:06.077Z,47.80
2022-12-15T22:22:07.651Z,59.40
2022-12-15T22:25:15.735Z,59.57
2022-12-15T22:28:21.809Z,42.97
2022-12-15T22:31:23.429Z,48.25
2022-12-15T22:34:26.970Z,53.28
2022-12-15T22:37:28.551Z,54.95
2022-12-15T22:40:30.307Z,55.90
2022-12-15T22:43:35.584Z,45.92
2022-12-15T22:46:37.236Z,56.33
2022-12-15T22:49:39.068Z,67.32
2022-12-15T22:52:44.084Z,53.60
2022-12-15T22:55:50.524Z,55.37
2022-12-15T22:58:58.182Z,60.90
2022-12-15T23:02:02.035Z,54.75
2022-12-15T23:05:04.983Z,60.40
2022-12-15T23:08:09.301Z,54.60
2022-12-15T23:11:29.616Z,60.28
2022-12-15T23:15:06.313Z,52.13
2022-12-15T23:18:07.928Z,55.87
2022-12-15T23:21:09.825Z,60.58
2022-12-15T23:24:15.273Z,50.10
2022-12-15T23:27:16.911Z,54.83
2022-12-15T23:30:18.493Z,71.30
2022-12-15T23:33:20.343Z,66.88
2022-12-15T23:36:21.955Z,65.28
2022-12-15T23:39:23.593Z,66.88
2022-12-15T23:42:25.353Z,62.08
2022-12-15T23:45:26.931Z,59.70
2022-12-15T23:48:30.048Z,72.30
2022-12-15T23:51:31.614Z,73.63
2022-12-15T23:54:36.160Z,59.20
2022-12-15T23:57:38.054Z,43.27
